Terminal Aerodrome Forecast
Issued by NWS

Home | Current Version | Previous Version | Text Only | Print | Product List | Glossary On
Versions: 1 2 3 4 5 6 7 8 9 10 11 12 13 14 15 16 17 18 19
000
FTUS44 KSJT 161100 RRA
TAFBBD
TAF
KBBD 161143Z 1612/1712 12005KT P6SM VCSH BKN070
     FM161800 11004KT P6SM VCSH SCT040 BKN250
     FM170000 07007KT P6SM SCT050 BKN100
      AMD NOT SKED=

USA.gov is the U.S. government's official web portal to all federal, state and local government web resources and services.